Time;durP1;ratioP1;P1;durP2;ratioP2;P2;SDS_P1;SDS_P2;PMS_P1;PMS_P2;Temp;Humidity;BMP_temperature;BMP_pressure;BME280_temperature;BME280_humidity;BME280_pressure;Samples;Min_cycle;Max_cycle;Signal;HPM_P1;HPM_P2
2021/01/14 00:02:38;;;;;;;4.20;1.45;;;;;;;0.53;74.81;100925.53;10130002;28;20338;-68
2021/01/14 00:07:34;;;;;;;5.75;1.30;;;;;;;0.30;76.11;100934.59;10117858;28;20137;-68
2021/01/14 00:12:31;;;;;;;5.45;1.10;;;;;;;0.52;76.13;100950.81;10123600;28;20050;-69
2021/01/14 00:17:27;;;;;;;7.30;1.60;;;;;;;0.38;77.99;100954.88;10125427;28;20101;-67
2021/01/14 00:22:23;;;;;;;2.03;0.85;;;;;;;0.25;79.94;100971.34;10127242;28;20071;-69
2021/01/14 00:27:18;;;;;;;14.20;2.80;;;;;;;0.09;82.38;100968.38;10124739;28;20074;-69
2021/01/14 00:32:14;;;;;;;5.43;2.30;;;;;;;0.10;84.21;100986.16;10134482;28;20551;-69
2021/01/14 00:42:25;;;;;;;6.57;1.92;;;;;;;0.04;85.28;101007.81;10118596;28;20393;-69
2021/01/14 00:47:21;;;;;;;11.02;2.65;;;;;;;0.02;86.03;101021.47;10127796;28;20054;-69
2021/01/14 00:52:17;;;;;;;7.68;2.30;;;;;;;0.12;85.99;101026.25;10125728;28;20073;-69
2021/01/14 00:57:13;;;;;;;12.88;2.25;;;;;;;0.05;86.44;101031.75;10126561;28;20053;-67
2021/01/14 01:02:12;;;;;;;11.40;2.90;;;;;;;0.16;86.47;101060.50;10117937;28;20452;-65
2021/01/14 01:07:09;;;;;;;7.80;2.50;;;;;;;0.10;86.83;101064.13;10120642;28;20121;-66
2021/01/14 01:12:05;;;;;;;7.07;3.20;;;;;;;0.23;86.67;101081.81;10119420;28;20765;-67
2021/01/14 01:17:01;;;;;;;11.15;3.33;;;;;;;0.24;87.32;101093.44;10118626;28;20509;-68
2021/01/14 01:21:57;;;;;;;6.15;2.95;;;;;;;0.19;87.45;101094.16;10116073;28;20046;-69
2021/01/14 01:26:53;;;;;;;8.95;4.05;;;;;;;0.18;88.09;101106.75;10138631;28;20101;-69
2021/01/14 01:31:49;;;;;;;10.18;2.80;;;;;;;0.15;88.25;101118.00;10126631;28;20058;-66
2021/01/14 01:36:50;;;;;;;6.70;2.67;;;;;;;0.23;88.08;101129.44;10107389;28;20436;-67
2021/01/14 01:41:46;;;;;;;9.90;2.83;;;;;;;0.29;87.99;101142.75;10116251;28;20054;-65
2021/01/14 01:46:42;;;;;;;6.70;2.00;;;;;;;0.18;88.29;101155.16;10121983;28;20057;-68
2021/01/14 01:51:41;;;;;;;7.25;3.00;;;;;;;0.38;88.09;101164.72;10111382;28;20467;-66
2021/01/14 01:56:37;;;;;;;5.25;2.42;;;;;;;0.40;87.86;101167.97;10116327;28;20142;-66
2021/01/14 02:01:36;;;;;;;5.78;2.30;;;;;;;0.44;87.45;101185.25;10116866;28;20108;-66
2021/01/14 02:06:40;;;;;;;7.45;2.70;;;;;;;0.54;87.54;101201.63;10115403;28;20092;-67
2021/01/14 02:11:47;;;;;;;5.18;2.17;;;;;;;0.46;87.75;101218.13;10118635;28;20050;-69
2021/01/14 02:16:43;;;;;;;4.70;2.13;;;;;;;0.50;87.56;101221.97;10125030;28;20051;-67
2021/01/14 02:21:40;;;;;;;5.25;2.20;;;;;;;0.45;88.00;101240.72;10122441;28;20065;-69
2021/01/14 02:26:38;;;;;;;5.13;2.28;;;;;;;0.41;87.95;101250.31;10106304;28;20050;-70
2021/01/14 02:31:34;;;;;;;4.20;1.70;;;;;;;0.39;88.06;101257.78;10115562;28;20107;-70
2021/01/14 02:36:30;;;;;;;6.22;2.58;;;;;;;0.51;87.87;101268.53;10107151;28;20054;-69
2021/01/14 02:41:26;;;;;;;6.10;2.60;;;;;;;0.52;87.88;101284.44;10129519;28;20051;-70
2021/01/14 02:46:23;;;;;;;4.72;2.45;;;;;;;0.60;88.05;101292.19;10126270;28;20423;-71
2021/01/14 02:51:26;;;;;;;5.97;2.78;;;;;;;0.66;87.87;101294.97;10123337;28;20784;-70
2021/01/14 02:56:26;;;;;;;6.63;3.60;;;;;;;0.62;87.63;101311.56;10133642;28;20074;-70
2021/01/14 03:01:22;;;;;;;7.85;2.95;;;;;;;0.60;87.88;101318.25;10114964;28;21060;-69
2021/01/14 03:06:18;;;;;;;8.63;2.35;;;;;;;0.55;87.49;101342.34;10116347;28;20059;-68
2021/01/14 03:11:14;;;;;;;5.97;2.80;;;;;;;0.73;87.41;101338.72;10129810;28;20532;-66
2021/01/14 03:16:10;;;;;;;7.55;3.30;;;;;;;0.72;87.37;101342.44;10126109;28;20066;-68
2021/01/14 03:21:06;;;;;;;7.20;3.67;;;;;;;0.68;87.41;101358.25;10115951;28;20051;-67
2021/01/14 03:26:02;;;;;;;7.10;3.35;;;;;;;0.90;87.25;101369.22;10118230;28;20097;-68
2021/01/14 03:30:58;;;;;;;6.72;3.42;;;;;;;0.87;87.43;101377.78;10112783;28;20057;-69
2021/01/14 03:35:54;;;;;;;8.63;4.20;;;;;;;0.82;87.35;101391.13;10115221;28;20552;-68
2021/01/14 03:40:50;;;;;;;9.82;4.13;;;;;;;0.87;87.11;101388.53;10097710;28;20063;-69
2021/01/14 03:45:46;;;;;;;12.15;3.88;;;;;;;0.93;87.26;101398.38;10115012;28;20500;-68
2021/01/14 03:50:42;;;;;;;9.43;3.67;;;;;;;0.83;87.03;101419.69;10120542;28;20097;-67
2021/01/14 03:55:38;;;;;;;7.88;3.80;;;;;;;0.81;87.27;101421.78;10114056;28;20062;-67
2021/01/14 04:00:34;;;;;;;9.68;4.20;;;;;;;0.84;86.98;101432.09;10112963;28;20573;-67
2021/01/14 04:05:30;;;;;;;10.65;4.25;;;;;;;0.84;86.61;101438.31;10123323;28;20054;-68
2021/01/14 04:10:26;;;;;;;11.10;4.07;;;;;;;0.86;86.56;101443.47;10126048;28;20568;-67
2021/01/14 04:15:22;;;;;;;13.98;5.25;;;;;;;0.86;86.43;101462.31;10132208;28;20060;-68
2021/01/14 04:20:18;;;;;;;12.70;5.22;;;;;;;0.98;86.52;101462.31;10126337;28;20580;-69
2021/01/14 04:25:15;;;;;;;10.60;4.65;;;;;;;0.91;86.09;101462.41;10109345;28;20065;-68
2021/01/14 04:30:11;;;;;;;11.80;5.57;;;;;;;0.90;86.46;101474.22;10123792;28;20138;-67
2021/01/14 04:35:08;;;;;;;18.83;4.78;;;;;;;0.86;86.13;101477.63;10118557;28;20051;-68
2021/01/14 04:40:05;;;;;;;13.18;6.20;;;;;;;0.99;85.92;101483.59;10128979;28;20046;-68
2021/01/14 04:45:03;;;;;;;14.75;5.88;;;;;;;1.04;85.62;101491.81;10130408;28;20078;-68
2021/01/14 04:50:00;;;;;;;18.70;6.85;;;;;;;0.94;86.01;101502.34;10118064;28;20169;-65
2021/01/14 04:55:01;;;;;;;11.50;5.75;;;;;;;1.05;85.70;101508.78;10122896;28;20055;-69
2021/01/14 05:00:01;;;;;;;14.73;4.90;;;;;;;1.17;85.51;101522.25;10118835;28;20071;-68
2021/01/14 05:05:02;;;;;;;12.60;5.40;;;;;;;1.14;85.60;101533.47;10114234;28;20085;-67
2021/01/14 05:10:02;;;;;;;16.92;5.97;;;;;;;0.99;85.39;101542.03;10114094;28;20409;-66
2021/01/14 05:15:02;;;;;;;12.05;6.10;;;;;;;1.11;85.52;101550.09;10117139;28;20082;-67
2021/01/14 05:19:58;;;;;;;13.07;6.18;;;;;;;1.21;85.22;101551.16;10101193;28;20047;-69
2021/01/14 05:25:08;;;;;;;12.13;6.20;;;;;;;1.15;85.17;101567.44;10104331;28;20137;-68
2021/01/14 05:30:09;;;;;;;12.88;6.63;;;;;;;1.20;85.19;101567.56;10101670;28;20051;-65
2021/01/14 05:35:10;;;;;;;13.75;5.93;;;;;;;1.18;84.91;101577.75;10106090;28;20047;-65
2021/01/14 05:40:06;;;;;;;12.30;5.45;;;;;;;1.32;85.18;101581.03;10115068;28;20043;-65
2021/01/14 05:45:03;;;;;;;13.10;6.13;;;;;;;1.26;84.50;101590.88;10119066;28;20055;-66
2021/01/14 05:50:02;;;;;;;15.65;5.60;;;;;;;1.29;84.17;101595.78;10130114;28;20047;-67
2021/01/14 05:55:10;;;;;;;14.05;6.15;;;;;;;1.24;84.07;101598.38;10104657;28;20057;-67
2021/01/14 06:00:12;;;;;;;12.98;5.97;;;;;;;1.34;84.07;101603.97;10091622;28;20051;-68
2021/01/14 06:05:26;;;;;;;14.77;6.60;;;;;;;1.34;83.74;101612.06;10090750;28;20501;-67
2021/01/14 06:10:33;;;;;;;16.25;5.60;;;;;;;1.35;83.08;101634.47;10109830;28;20477;-67
2021/01/14 06:15:29;;;;;;;12.05;5.90;;;;;;;1.35;83.34;101631.78;10106765;28;20509;-67
2021/01/14 06:20:27;;;;;;;13.73;6.18;;;;;;;1.29;82.90;101633.50;10111770;28;20058;-68
2021/01/14 06:25:23;;;;;;;13.65;5.38;;;;;;;1.38;82.82;101647.47;10094854;28;20054;-68
2021/01/14 06:30:19;;;;;;;10.23;4.63;;;;;;;1.51;82.73;101654.47;10109721;28;20054;-67
2021/01/14 06:35:16;;;;;;;11.85;5.53;;;;;;;1.39;81.79;101666.09;10104243;28;20050;-67
2021/01/14 06:40:17;;;;;;;13.98;5.30;;;;;;;1.50;81.63;101671.72;10116140;28;20046;-67
2021/01/14 06:45:21;;;;;;;12.45;5.13;;;;;;;1.40;81.71;101683.09;10124407;28;20055;-68
2021/01/14 06:50:27;;;;;;;11.48;4.53;;;;;;;1.31;81.26;101690.69;10111015;28;20055;-67
2021/01/14 06:55:24;;;;;;;12.07;6.05;;;;;;;1.22;80.57;101692.06;10110988;28;20113;-67
2021/01/14 07:00:22;;;;;;;11.73;5.65;;;;;;;1.30;81.42;101702.53;10106167;28;20130;-68
2021/01/14 07:05:33;;;;;;;18.75;6.47;;;;;;;1.22;81.49;101708.25;10112411;28;20509;-68
2021/01/14 07:10:31;;;;;;;13.55;6.50;;;;;;;1.28;81.31;101720.78;10104273;28;20042;-67
2021/01/14 07:15:30;;;;;;;10.65;5.50;;;;;;;1.37;80.39;101722.09;10105200;28;20096;-67
2021/01/14 07:20:26;;;;;;;13.60;5.53;;;;;;;1.38;79.92;101737.19;10118355;28;20077;-67
2021/01/14 07:25:24;;;;;;;10.73;5.35;;;;;;;1.27;80.19;101738.00;10122257;28;20761;-67
2021/01/14 07:30:21;;;;;;;12.20;5.55;;;;;;;1.35;80.73;101751.16;10121067;28;20112;-69
2021/01/14 07:35:47;;;;;;;12.93;6.03;;;;;;;1.37;80.59;101764.38;10121672;28;20046;-67
2021/01/14 07:40:45;;;;;;;12.60;4.78;;;;;;;1.34;80.20;101776.44;10097502;28;20078;-67
2021/01/14 07:45:41;;;;;;;16.15;6.20;;;;;;;1.43;79.74;101777.75;10125506;28;20057;-67
2021/01/14 07:50:48;;;;;;;11.57;5.65;;;;;;;1.35;79.45;101788.88;10109199;28;20051;-67
2021/01/14 07:55:44;;;;;;;11.65;5.43;;;;;;;1.49;79.78;101794.06;10119930;28;20083;-67
2021/01/14 08:00:40;;;;;;;17.55;7.03;;;;;;;1.35;79.19;101799.66;10119728;28;20047;-67
2021/01/14 08:05:40;;;;;;;12.27;5.45;;;;;;;1.36;79.24;101800.47;10097130;28;20054;-67
2021/01/14 08:10:36;;;;;;;13.75;6.10;;;;;;;1.34;79.79;101808.78;10106080;28;20050;-67
2021/01/14 08:15:36;;;;;;;11.82;5.72;;;;;;;1.38;80.25;101814.53;10108202;28;20592;-67
2021/01/14 08:20:32;;;;;;;13.23;6.00;;;;;;;1.41;79.72;101820.28;10107689;28;20051;-67
2021/01/14 08:25:33;;;;;;;13.10;5.63;;;;;;;1.44;79.70;101832.50;10100848;28;20073;-67
2021/01/14 08:30:39;;;;;;;14.23;6.85;;;;;;;1.55;80.36;101836.25;10101194;28;20584;-67
2021/01/14 08:35:41;;;;;;;15.40;6.63;;;;;;;1.67;79.75;101845.19;10111998;28;20117;-66
2021/01/14 08:40:39;;;;;;;11.82;5.57;;;;;;;1.68;79.82;101854.94;10119079;28;20406;-67
2021/01/14 08:45:52;;;;;;;10.82;5.47;;;;;;;1.77;79.74;101867.03;10119970;28;20050;-67
2021/01/14 08:50:50;;;;;;;12.73;5.97;;;;;;;1.63;78.99;101876.38;10114739;28;20054;-67
2021/01/14 08:55:53;;;;;;;13.70;5.15;;;;;;;1.73;79.36;101879.34;10118590;28;20562;-67
2021/01/14 09:00:49;;;;;;;9.83;5.30;;;;;;;1.82;79.11;101880.66;10123762;28;20058;-67
2021/01/14 09:05:46;;;;;;;12.63;5.63;;;;;;;1.91;79.17;101888.44;10107146;28;20125;-66
2021/01/14 09:10:52;;;;;;;8.82;4.68;;;;;;;1.79;78.98;101881.13;10122044;28;20105;-67
2021/01/14 09:15:49;;;;;;;14.07;5.80;;;;;;;1.72;78.94;101895.72;10117621;28;20316;-67
2021/01/14 09:20:52;;;;;;;11.98;5.78;;;;;;;1.71;78.42;101900.31;10117466;28;20071;-66
2021/01/14 09:25:51;;;;;;;11.50;5.57;;;;;;;1.81;78.47;101906.00;10121175;28;20541;-67
2021/01/14 09:31:04;;;;;;;11.73;5.32;;;;;;;1.73;78.40;101919.78;10126228;28;20061;-67
2021/01/14 09:36:06;;;;;;;12.80;4.90;;;;;;;1.76;78.37;101919.31;10124063;28;20057;-67
2021/01/14 09:41:03;;;;;;;13.35;5.30;;;;;;;1.68;78.19;101933.13;10123767;28;20110;-67
2021/01/14 09:45:59;;;;;;;18.15;6.10;;;;;;;1.68;78.76;101935.84;10126882;28;20560;-66
2021/01/14 09:50:55;;;;;;;15.30;6.75;;;;;;;1.72;79.14;101944.28;10116935;28;20074;-66
2021/01/14 09:55:51;;;;;;;10.25;5.40;;;;;;;1.73;78.69;101935.97;10123268;28;20527;-67
2021/01/14 10:00:51;;;;;;;9.02;5.10;;;;;;;1.59;79.13;101945.28;10129729;28;20043;-67
2021/01/14 10:05:50;;;;;;;12.88;5.57;;;;;;;1.85;79.30;101950.31;10116676;28;20456;-67
2021/01/14 10:10:47;;;;;;;10.73;6.15;;;;;;;1.97;79.37;101952.22;10116451;28;20062;-66
2021/01/14 10:15:44;;;;;;;13.45;6.28;;;;;;;2.00;78.90;101958.00;10110990;28;20047;-66
2021/01/14 10:20:41;;;;;;;15.30;6.22;;;;;;;2.01;78.61;101961.50;10113617;28;20047;-66
2021/01/14 10:25:47;;;;;;;14.55;6.13;;;;;;;1.89;79.23;101972.25;10105752;28;20059;-66
2021/01/14 10:30:43;;;;;;;12.02;5.78;;;;;;;1.84;79.48;101975.63;10107029;28;20106;-67
2021/01/14 10:35:39;;;;;;;15.32;6.13;;;;;;;1.84;79.30;101970.25;10104667;28;20047;-66
2021/01/14 10:40:49;;;;;;;11.75;6.13;;;;;;;1.60;79.81;101979.28;10109117;28;20078;-66
2021/01/14 10:45:59;;;;;;;14.18;7.10;;;;;;;1.79;79.59;101978.22;10097838;28;20070;-66
2021/01/14 10:50:57;;;;;;;12.57;6.38;;;;;;;1.87;79.47;101985.97;10105328;28;20055;-66
2021/01/14 10:56:14;;;;;;;15.23;5.90;;;;;;;1.85;79.95;101985.38;10095025;28;20596;-67
2021/01/14 11:01:20;;;;;;;15.02;6.57;;;;;;;1.88;79.82;101982.22;10110878;28;20042;-65
2021/01/14 11:06:36;;;;;;;18.45;6.35;;;;;;;1.93;80.04;101994.19;10118289;28;20421;-65
2021/01/14 11:11:32;;;;;;;17.25;6.40;;;;;;;1.93;80.44;101995.03;10114458;28;20043;-65
2021/01/14 11:16:28;;;;;;;25.00;7.35;;;;;;;1.90;79.55;101995.47;10111577;28;20054;-66
2021/01/14 11:21:30;;;;;;;11.73;6.35;;;;;;;1.91;80.08;102007.09;10091825;28;20710;-65
2021/01/14 11:26:27;;;;;;;13.40;5.85;;;;;;;1.92;80.25;102004.16;10088956;28;20103;-65
2021/01/14 11:31:24;;;;;;;15.25;6.68;;;;;;;1.94;80.38;102006.63;10098377;28;20051;-68
2021/01/14 11:36:21;;;;;;;15.93;6.72;;;;;;;1.92;80.01;101997.94;10097286;28;20054;-65
2021/01/14 11:41:19;;;;;;;13.65;6.47;;;;;;;1.87;80.62;101995.94;10090706;28;20047;-65
2021/01/14 11:46:21;;;;;;;12.35;6.53;;;;;;;1.83;80.62;102000.13;10087989;28;20051;-67
2021/01/14 11:51:17;;;;;;;12.43;6.47;;;;;;;1.75;80.89;101995.88;10094863;28;20054;-65
2021/01/14 11:56:15;;;;;;;21.00;7.78;;;;;;;1.77;80.45;101999.19;10118899;28;20459;-66
2021/01/14 12:01:11;;;;;;;12.48;6.53;;;;;;;1.70;80.70;102001.13;10114078;28;20125;-66
2021/01/14 12:06:07;;;;;;;13.75;6.80;;;;;;;1.71;80.74;102002.78;10114681;28;20050;-67
2021/01/14 12:11:03;;;;;;;12.18;6.88;;;;;;;1.68;80.84;102014.03;10123718;28;20439;-66
2021/01/14 12:15:59;;;;;;;13.60;6.63;;;;;;;1.64;80.59;102007.44;10114219;28;20069;-67
2021/01/14 12:20:55;;;;;;;19.30;6.88;;;;;;;1.68;80.52;101997.84;10122709;28;20524;-67
2021/01/14 12:25:51;;;;;;;14.73;7.43;;;;;;;1.62;80.68;101998.75;10122581;28;20129;-66
2021/01/14 12:30:47;;;;;;;14.80;6.15;;;;;;;1.61;80.36;102003.31;10108357;28;20043;-68
2021/01/14 12:35:43;;;;;;;13.95;5.88;;;;;;;1.56;80.35;101999.66;10106034;28;20144;-65
2021/01/14 12:40:39;;;;;;;13.43;6.65;;;;;;;1.77;80.84;102001.88;10115257;28;20055;-65
2021/01/14 12:45:35;;;;;;;11.88;6.22;;;;;;;1.69;80.65;102002.19;10120756;28;20049;-65
2021/01/14 12:50:31;;;;;;;14.70;7.03;;;;;;;1.78;80.20;102008.91;10118681;28;20050;-65
2021/01/14 12:55:27;;;;;;;11.35;6.57;;;;;;;1.81;79.84;102011.16;10107581;28;20412;-65
2021/01/14 13:00:23;;;;;;;16.60;6.30;;;;;;;1.96;80.25;101999.97;10128041;28;20046;-69
2021/01/14 13:05:19;;;;;;;17.38;6.10;;;;;;;1.90;79.86;102000.88;10107337;28;20081;-65
2021/01/14 13:10:15;;;;;;;12.60;6.68;;;;;;;2.03;79.64;102000.69;10110361;28;20182;-66
2021/01/14 13:15:12;;;;;;;11.30;6.55;;;;;;;2.03;79.16;102003.38;10121117;28;20094;-67
2021/01/14 13:20:08;;;;;;;12.18;5.95;;;;;;;2.10;79.49;102011.38;10117942;28;20470;-66
2021/01/14 13:25:05;;;;;;;11.85;6.32;;;;;;;2.15;79.27;102014.22;10115544;28;20736;-67
2021/01/14 13:30:01;;;;;;;10.27;6.13;;;;;;;2.04;78.34;102017.69;10112321;28;20665;-66
2021/01/14 13:34:57;;;;;;;9.35;5.53;;;;;;;2.14;78.67;102017.97;10122194;28;20093;-67
2021/01/14 13:39:53;;;;;;;12.05;7.05;;;;;;;2.13;78.73;102019.00;10104799;28;20050;-66
2021/01/14 13:44:49;;;;;;;11.43;6.22;;;;;;;2.09;78.96;102020.56;10101118;28;20058;-67
2021/01/14 13:49:48;;;;;;;13.95;6.88;;;;;;;2.10;79.08;102027.59;10107398;28;20046;-67
2021/01/14 13:54:46;;;;;;;11.95;6.82;;;;;;;2.02;78.92;102022.50;10126616;28;20144;-67
2021/01/14 13:59:43;;;;;;;17.45;7.20;;;;;;;2.05;79.05;102035.53;10117398;28;20057;-67
2021/01/14 14:04:39;;;;;;;11.32;6.30;;;;;;;2.03;79.05;102041.16;10121125;28;20050;-67
2021/01/14 14:09:35;;;;;;;12.98;6.85;;;;;;;1.99;78.98;102052.63;10102320;28;20046;-67
2021/01/14 14:14:31;;;;;;;11.05;6.50;;;;;;;1.93;78.61;102048.13;10109333;28;20097;-67
2021/01/14 14:19:27;;;;;;;11.38;6.18;;;;;;;1.93;78.56;102064.31;10113752;28;20140;-67
2021/01/14 14:24:24;;;;;;;11.57;6.45;;;;;;;1.93;78.63;102064.31;10100457;28;20145;-66
2021/01/14 14:29:20;;;;;;;11.75;6.70;;;;;;;1.98;79.06;102061.78;10107079;28;20500;-67
2021/01/14 14:34:16;;;;;;;12.68;6.25;;;;;;;1.93;78.85;102069.72;10114875;28;20062;-67
2021/01/14 14:39:12;;;;;;;14.43;7.38;;;;;;;1.86;79.26;102070.63;10104995;28;20481;-67
2021/01/14 14:44:09;;;;;;;13.15;7.25;;;;;;;1.95;79.80;102073.84;10104881;28;20054;-67
2021/01/14 14:49:05;;;;;;;12.52;6.68;;;;;;;1.83;79.93;102073.78;10115376;28;20524;-66
2021/01/14 14:54:01;;;;;;;14.80;7.78;;;;;;;1.86;80.44;102080.59;10110555;28;20051;-67
2021/01/14 14:58:57;;;;;;;14.25;7.88;;;;;;;1.89;80.00;102089.06;10098451;28;20047;-67
2021/01/14 15:03:53;;;;;;;16.45;8.05;;;;;;;1.80;80.04;102086.91;10088091;28;20065;-66
2021/01/14 15:08:49;;;;;;;11.93;7.10;;;;;;;1.68;80.43;102087.63;10095269;28;20055;-67
2021/01/14 15:13:46;;;;;;;11.18;6.38;;;;;;;1.65;80.18;102095.38;10096203;28;20051;-67
2021/01/14 15:18:43;;;;;;;12.38;6.38;;;;;;;1.71;80.46;102105.25;10096904;28;20075;-68
2021/01/14 15:23:39;;;;;;;15.10;7.05;;;;;;;1.86;80.68;102108.41;10102638;28;20406;-67
2021/01/14 15:28:36;;;;;;;17.33;7.35;;;;;;;1.71;79.68;102116.03;10089884;28;20193;-65
2021/01/14 15:33:32;;;;;;;12.07;6.93;;;;;;;1.93;79.87;102111.03;10092813;28;20553;-66
2021/01/14 15:38:28;;;;;;;14.15;6.78;;;;;;;1.89;80.24;102118.72;10100563;28;20154;-67
2021/01/14 15:43:26;;;;;;;12.88;6.82;;;;;;;1.81;79.60;102124.44;10091897;28;20157;-66
2021/01/14 15:48:23;;;;;;;15.32;6.57;;;;;;;1.83;79.63;102119.66;10097247;28;20449;-64
2021/01/14 15:53:20;;;;;;;11.98;6.13;;;;;;;1.68;79.83;102125.38;10092741;28;20113;-67
2021/01/14 15:58:16;;;;;;;14.00;7.07;;;;;;;1.75;80.22;102128.03;10114134;28;20043;-66
2021/01/14 16:03:12;;;;;;;14.50;6.60;;;;;;;1.75;80.20;102133.41;10103050;28;20125;-66
2021/01/14 16:08:08;;;;;;;16.13;6.93;;;;;;;1.67;80.23;102142.63;10094696;28;20051;-65
2021/01/14 16:13:04;;;;;;;19.38;8.13;;;;;;;1.63;79.83;102141.41;10099598;28;20046;-67
2021/01/14 16:18:00;;;;;;;16.15;7.15;;;;;;;1.78;80.02;102146.44;10093676;28;20078;-66
2021/01/14 16:22:56;;;;;;;12.85;7.80;;;;;;;1.74;80.16;102152.50;10103782;28;20042;-66
2021/01/14 16:27:52;;;;;;;12.20;7.28;;;;;;;1.73;80.54;102146.28;10090740;28;20053;-66
2021/01/14 16:32:48;;;;;;;14.70;7.65;;;;;;;1.83;80.26;102152.00;10105551;28;20082;-66
2021/01/14 16:37:44;;;;;;;14.85;7.38;;;;;;;1.78;80.24;102149.13;10109819;28;20420;-67
2021/01/14 16:42:43;;;;;;;13.40;7.18;;;;;;;1.91;79.65;102152.75;10102769;28;20623;-66
2021/01/14 16:47:39;;;;;;;13.07;6.93;;;;;;;1.72;79.89;102160.00;10103246;28;20517;-67
2021/01/14 16:52:35;;;;;;;11.15;7.22;;;;;;;1.80;79.88;102163.22;10112410;28;20050;-66
2021/01/14 16:57:31;;;;;;;15.32;7.57;;;;;;;1.71;79.90;102161.88;10106273;28;20055;-67
2021/01/14 17:02:27;;;;;;;17.35;8.27;;;;;;;1.61;80.12;102158.88;10101723;28;20049;-64
2021/01/14 17:07:24;;;;;;;18.08;8.52;;;;;;;1.68;80.69;102165.03;10099417;28;20051;-65
2021/01/14 17:12:20;;;;;;;12.23;7.05;;;;;;;1.74;81.03;102163.28;10094508;28;20572;-64
2021/01/14 17:17:16;;;;;;;15.68;7.65;;;;;;;1.79;80.65;102172.38;10105194;28;21377;-67
2021/01/14 17:22:12;;;;;;;15.20;7.40;;;;;;;1.84;80.28;102175.22;10092776;28;20046;-66
2021/01/14 17:27:08;;;;;;;14.32;7.90;;;;;;;1.84;80.87;102174.41;10102093;28;20082;-66
2021/01/14 17:32:04;;;;;;;14.35;6.70;;;;;;;1.83;79.97;102173.59;10110344;28;20046;-67
2021/01/14 17:37:01;;;;;;;13.63;7.30;;;;;;;1.81;80.41;102172.97;10096098;28;20053;-66
2021/01/14 17:41:58;;;;;;;16.60;7.45;;;;;;;1.81;80.63;102186.47;10090382;28;20571;-67
2021/01/14 17:46:54;;;;;;;16.67;8.60;;;;;;;1.85;79.93;102179.56;10088593;28;20058;-66
2021/01/14 17:51:50;;;;;;;13.90;8.25;;;;;;;1.92;80.25;102181.38;10097012;28;20054;-66
2021/01/14 17:56:47;;;;;;;15.85;8.30;;;;;;;1.92;79.92;102184.88;10096003;28;20046;-69
2021/01/14 18:01:43;;;;;;;15.13;8.15;;;;;;;1.77;80.70;102185.25;10095540;28;20112;-68
2021/01/14 18:06:39;;;;;;;14.57;7.65;;;;;;;1.75;81.26;102175.75;10093052;28;20051;-68
2021/01/14 18:11:35;;;;;;;18.08;9.38;;;;;;;1.78;80.86;102184.19;10092686;28;20391;-67
2021/01/14 18:16:35;;;;;;;14.15;8.10;;;;;;;1.60;81.14;102190.41;10085975;28;20051;-68
2021/01/14 18:21:31;;;;;;;17.13;8.27;;;;;;;1.66;81.78;102186.81;10087238;28;20080;-68
2021/01/14 18:26:27;;;;;;;15.52;8.30;;;;;;;1.76;81.30;102178.19;10095146;28;20076;-68
2021/01/14 18:31:23;;;;;;;16.67;8.13;;;;;;;1.78;80.63;102176.09;10096260;28;20102;-68
2021/01/14 18:36:27;;;;;;;13.00;7.88;;;;;;;1.69;80.25;102172.03;10087173;28;20050;-68
2021/01/14 18:41:25;;;;;;;14.10;8.18;;;;;;;1.72;80.47;102166.22;10096577;28;20145;-67
2021/01/14 18:46:21;;;;;;;15.95;8.63;;;;;;;1.56;80.92;102177.59;10094244;28;20100;-68
2021/01/14 18:51:18;;;;;;;14.88;8.50;;;;;;;1.82;80.63;102171.91;10088047;28;20125;-68
2021/01/14 18:56:21;;;;;;;13.35;7.88;;;;;;;1.79;80.50;102177.78;10089637;28;20061;-68
2021/01/14 19:01:17;;;;;;;16.98;7.80;;;;;;;1.42;82.09;102183.09;10087775;28;20047;-66
2021/01/14 19:06:14;;;;;;;16.75;8.88;;;;;;;1.70;81.55;102187.19;10095027;28;20056;-65
2021/01/14 19:11:10;;;;;;;19.50;8.75;;;;;;;1.78;81.27;102192.28;10096565;28;20058;-66
2021/01/14 19:16:08;;;;;;;14.63;7.50;;;;;;;1.72;81.63;102193.19;10102366;28;20086;-68
2021/01/14 19:21:05;;;;;;;15.73;8.75;;;;;;;1.84;81.21;102191.41;10097177;28;20509;-70
2021/01/14 19:26:01;;;;;;;15.50;8.77;;;;;;;1.70;81.39;102197.97;10089139;28;20053;-69
2021/01/14 19:30:57;;;;;;;17.20;8.55;;;;;;;1.69;81.07;102193.63;10092059;28;20058;-70
2021/01/14 19:35:54;;;;;;;15.38;8.23;;;;;;;1.73;81.54;102200.22;10090717;28;20047;-69
2021/01/14 19:40:50;;;;;;;17.35;9.05;;;;;;;1.81;81.20;102202.66;10089750;28;20042;-70
2021/01/14 19:45:46;;;;;;;18.23;8.38;;;;;;;1.85;80.53;102195.75;10086809;28;20059;-70
2021/01/14 19:50:42;;;;;;;20.30;9.40;;;;;;;1.69;80.99;102204.41;10090935;28;20042;-70
2021/01/14 19:55:38;;;;;;;19.85;9.10;;;;;;;1.77;80.98;102206.84;10095479;28;20050;-70
2021/01/14 20:00:34;;;;;;;16.90;9.30;;;;;;;1.73;81.43;102205.63;10092777;28;20077;-70
2021/01/14 20:05:30;;;;;;;15.85;8.57;;;;;;;1.81;80.26;102208.03;10098931;28;20508;-69
2021/01/14 20:10:26;;;;;;;16.88;8.90;;;;;;;1.74;80.44;102212.69;10108605;28;20042;-69
2021/01/14 20:15:22;;;;;;;16.30;9.25;;;;;;;1.71;80.88;102218.50;10091463;28;20051;-68
2021/01/14 20:20:19;;;;;;;16.35;9.27;;;;;;;1.66;81.04;102226.44;10098348;28;20130;-69
2021/01/14 20:25:15;;;;;;;19.17;9.98;;;;;;;1.49;81.26;102231.56;10097250;28;20533;-66
2021/01/14 20:30:12;;;;;;;17.40;9.35;;;;;;;1.66;80.79;102231.81;10100531;28;20101;-68
2021/01/14 20:35:08;;;;;;;13.85;8.02;;;;;;;1.61;81.31;102229.78;10095351;28;20421;-68
2021/01/14 20:40:06;;;;;;;16.83;8.90;;;;;;;1.57;81.42;102243.94;10097103;28;20074;-69
2021/01/14 20:45:09;;;;;;;18.30;10.10;;;;;;;1.49;80.87;102242.34;10096298;28;20054;-68
2021/01/14 20:50:06;;;;;;;17.02;10.13;;;;;;;1.61;80.36;102248.66;10110165;28;20482;-68
2021/01/14 20:55:03;;;;;;;14.50;9.23;;;;;;;1.61;80.12;102250.53;10099751;28;20058;-67
2021/01/14 20:59:59;;;;;;;17.02;8.13;;;;;;;1.63;80.30;102249.28;10101261;28;20102;-67
2021/01/14 21:04:55;;;;;;;15.48;8.98;;;;;;;1.63;80.32;102253.84;10094908;28;20066;-67
2021/01/14 21:09:51;;;;;;;18.10;9.13;;;;;;;1.65;79.36;102247.19;10099177;28;20106;-68
2021/01/14 21:14:47;;;;;;;14.43;9.30;;;;;;;1.69;79.40;102247.56;10088091;28;20043;-66
2021/01/14 21:19:44;;;;;;;14.50;8.90;;;;;;;1.70;79.32;102249.22;10085533;28;20043;-65
2021/01/14 21:24:40;;;;;;;15.25;8.45;;;;;;;1.71;78.95;102252.72;10091493;28;20058;-66
2021/01/14 21:29:36;;;;;;;16.02;8.45;;;;;;;1.63;78.23;102256.53;10087431;28;20149;-68
2021/01/14 21:34:32;;;;;;;15.63;8.88;;;;;;;1.74;78.77;102253.13;10100581;28;20051;-69
2021/01/14 21:39:28;;;;;;;15.75;7.40;;;;;;;1.73;78.40;102254.16;10102692;28;20160;-70
2021/01/14 21:44:24;;;;;;;14.35;8.02;;;;;;;1.71;78.33;102256.25;10102436;28;20156;-67
2021/01/14 21:49:20;;;;;;;11.55;7.38;;;;;;;1.58;78.32;102259.03;10101871;28;20053;-69
2021/01/14 21:54:16;;;;;;;15.48;7.75;;;;;;;1.65;78.08;102252.56;10106319;28;20051;-70
2021/01/14 21:59:13;;;;;;;13.07;7.57;;;;;;;1.63;77.35;102264.63;10103665;28;20096;-70
2021/01/14 22:04:09;;;;;;;16.20;7.95;;;;;;;1.65;77.60;102259.84;10102503;28;20122;-70
2021/01/14 22:09:13;;;;;;;13.35;7.15;;;;;;;1.47;77.72;102261.41;10104788;28;20429;-71
2021/01/14 22:14:10;;;;;;;15.05;8.27;;;;;;;1.55;77.20;102260.31;10105855;28;20078;-70
2021/01/14 22:19:08;;;;;;;14.75;7.35;;;;;;;1.29;77.00;102269.44;10104452;28;20416;-70
2021/01/14 22:24:05;;;;;;;12.90;7.43;;;;;;;1.16;77.57;102274.88;10107249;28;20137;-70
2021/01/14 22:29:06;;;;;;;11.15;6.63;;;;;;;1.05;77.80;102271.84;10109531;28;20090;-70
2021/01/14 22:34:04;;;;;;;14.10;7.03;;;;;;;1.02;78.14;102290.31;10107027;28;20042;-68
2021/01/14 22:39:00;;;;;;;10.60;6.55;;;;;;;1.16;77.27;102291.06;10106269;28;20050;-68
2021/01/14 22:43:57;;;;;;;9.00;4.60;;;;;;;1.25;78.75;102300.53;10111002;28;20170;-69
2021/01/14 22:48:53;;;;;;;12.82;6.68;;;;;;;1.18;77.55;102294.38;10106906;28;20404;-69
2021/01/14 22:53:49;;;;;;;14.27;7.10;;;;;;;1.26;77.48;102302.22;10098139;28;20049;-68
2021/01/14 22:58:44;;;;;;;11.00;6.95;;;;;;;1.26;77.76;102297.63;10093678;28;20130;-68